createdAt,value
2023-10-29T00:00:14.254Z,62
2023-10-29T00:05:18.168Z,62
2023-10-29T00:10:22.082Z,60
2023-10-29T00:15:14.459Z,62
2023-10-29T00:20:18.511Z,62
2023-10-29T00:25:18.840Z,62
2023-10-29T00:30:15.813Z,61
2023-10-29T00:35:17.137Z,61
2023-10-29T00:40:15.963Z,61
2023-10-29T00:45:14.681Z,61
2023-10-29T00:50:23.062Z,61
2023-10-29T00:55:13.977Z,61
2023-10-29T01:00:20.035Z,60
2023-10-29T01:05:15.897Z,61
2023-10-29T01:10:20.015Z,61
2023-10-29T01:15:14.470Z,62
2023-10-29T01:20:14.738Z,61
2023-10-29T01:25:18.764Z,62
2023-10-29T01:30:26.608Z,61
2023-10-29T01:35:18.485Z,62
2023-10-29T01:40:14.592Z,62
2023-10-29T01:45:15.127Z,62
2023-10-29T01:50:14.253Z,62
2023-10-29T01:55:18.218Z,62
2023-10-29T02:00:14.470Z,61
2023-10-29T02:05:14.225Z,62
2023-10-29T02:10:18.066Z,62
2023-10-29T02:15:18.481Z,61
2023-10-29T02:20:24.627Z,62
2023-10-29T02:25:16.587Z,60
2023-10-29T02:30:18.632Z,61
2023-10-29T02:35:24.727Z,60
2023-10-29T02:40:20.615Z,61
2023-10-29T02:45:15.059Z,62
2023-10-29T02:50:15.913Z,61
2023-10-29T02:55:15.923Z,61
2023-10-29T03:00:16.467Z,61
2023-10-29T03:05:22.245Z,61
2023-10-29T03:10:22.283Z,61
2023-10-29T03:15:14.457Z,61
2023-10-29T03:20:14.458Z,61
2023-10-29T03:25:16.640Z,60
2023-10-29T03:30:16.939Z,60
2023-10-29T03:35:15.753Z,60
2023-10-29T03:40:20.799Z,60
2023-10-29T03:45:17.112Z,60
2023-10-29T03:50:13.922Z,60
2023-10-29T03:55:13.717Z,60
2023-10-29T04:00:17.079Z,60
2023-10-29T04:05:35.121Z,59
2023-10-29T04:10:14.211Z,60
2023-10-29T04:15:16.808Z,60
2023-10-29T04:20:17.751Z,60
2023-10-29T04:25:18.822Z,60
2023-10-29T04:30:16.543Z,60
2023-10-29T04:35:22.976Z,60
2023-10-29T04:40:17.908Z,60
2023-10-29T04:45:17.984Z,60
2023-10-29T04:50:19.947Z,59
2023-10-29T04:55:22.075Z,59
2023-10-29T05:00:16.335Z,60
2023-10-29T05:05:18.446Z,60
2023-10-29T05:10:20.804Z,60
2023-10-29T05:15:22.312Z,59
2023-10-29T05:20:20.434Z,60
2023-10-29T05:25:16.321Z,59
2023-10-29T05:30:19.009Z,60
2023-10-29T05:35:18.921Z,60
2023-10-29T05:40:15.859Z,60
2023-10-29T05:45:15.842Z,60
2023-10-29T05:50:15.873Z,58
2023-10-29T05:55:17.980Z,60
2023-10-29T06:00:14.322Z,59
2023-10-29T06:05:14.525Z,60
2023-10-29T06:10:16.837Z,60
2023-10-29T06:15:18.234Z,60
2023-10-29T06:20:16.788Z,58
2023-10-29T06:25:16.649Z,60
2023-10-29T06:30:17.622Z,59
2023-10-29T06:35:15.256Z,59
2023-10-29T06:40:18.327Z,59
2023-10-29T06:45:18.677Z,59
2023-10-29T06:50:16.011Z,59
2023-10-29T06:55:14.176Z,58
2023-10-29T07:00:14.458Z,59
2023-10-29T07:05:15.699Z,58
2023-10-29T07:10:22.702Z,59
2023-10-29T07:15:17.201Z,59
2023-10-29T07:20:16.048Z,58
2023-10-29T07:25:13.761Z,59
2023-10-29T07:30:17.641Z,59
2023-10-29T07:35:18.726Z,58
2023-10-29T07:40:19.002Z,59
2023-10-29T07:45:13.981Z,58
2023-10-29T07:50:20.138Z,58
2023-10-29T07:55:16.353Z,58
2023-10-29T08:00:20.835Z,58
2023-10-29T08:05:14.127Z,58
2023-10-29T08:10:13.924Z,59
2023-10-29T08:15:16.646Z,59
2023-10-29T08:20:14.749Z,60
2023-10-29T08:25:14.763Z,60
2023-10-29T08:30:23.199Z,60
2023-10-29T08:35:18.220Z,59
2023-10-29T08:40:14.760Z,59
2023-10-29T08:45:30.889Z,60
2023-10-29T08:50:14.111Z,62
2023-10-29T08:55:16.028Z,63
2023-10-29T09:00:16.181Z,62
2023-10-29T09:05:24.359Z,63
2023-10-29T09:10:16.590Z,60
2023-10-29T09:15:17.002Z,62
2023-10-29T09:20:16.158Z,61
2023-10-29T09:25:14.082Z,60
2023-10-29T09:30:16.744Z,63
2023-10-29T09:35:14.282Z,63
2023-10-29T09:40:22.543Z,61
2023-10-29T09:45:24.819Z,63
2023-10-29T09:50:15.647Z,62
2023-10-29T09:55:20.989Z,61
2023-10-29T10:00:26.104Z,61
2023-10-29T10:05:20.614Z,59
2023-10-29T10:10:16.907Z,59
2023-10-29T10:15:16.025Z,63
2023-10-29T10:20:20.187Z,62
2023-10-29T10:25:16.061Z,64
2023-10-29T10:30:18.236Z,64
2023-10-29T10:35:18.620Z,62
2023-10-29T10:40:24.779Z,61
2023-10-29T10:45:21.318Z,64
2023-10-29T10:50:14.180Z,64
2023-10-29T10:55:47.318Z,63
2023-10-29T11:00:14.272Z,62
2023-10-29T11:05:16.255Z,62
2023-10-29T11:10:14.794Z,63
2023-10-29T11:15:16.690Z,62
2023-10-29T11:20:18.807Z,61
2023-10-29T11:25:14.893Z,61
2023-10-29T11:30:17.435Z,62
2023-10-29T11:35:14.432Z,61
2023-10-29T11:40:22.796Z,61
2023-10-29T15:52:46.925Z,61
2023-10-29T15:57:28.518Z,62
2023-10-29T16:02:30.659Z,62
2023-10-29T16:05:14.867Z,62
2023-10-29T16:10:15.732Z,62
2023-10-29T16:15:16.851Z,62
2023-10-29T16:20:20.054Z,62
2023-10-29T16:25:14.221Z,62
2023-10-29T16:30:20.927Z,62
2023-10-29T16:35:20.066Z,62
2023-10-29T16:40:14.427Z,62
2023-10-29T16:45:17.023Z,62
2023-10-29T16:50:19.898Z,62
2023-10-29T16:55:20.579Z,61
2023-10-29T17:00:14.375Z,61
2023-10-29T17:05:16.159Z,63
2023-10-29T17:10:16.203Z,64
2023-10-29T17:15:14.699Z,61
2023-10-29T17:20:14.185Z,63
2023-10-29T17:25:24.060Z,63
2023-10-29T17:30:14.246Z,63
2023-10-29T17:35:16.696Z,62
2023-10-29T17:40:18.582Z,63
2023-10-29T17:45:17.513Z,63
2023-10-29T17:50:14.634Z,63
2023-10-29T17:55:16.985Z,63
2023-10-29T18:00:20.522Z,63
2023-10-29T18:05:18.323Z,63
2023-10-29T18:10:16.769Z,63
2023-10-29T18:15:16.205Z,63
2023-10-29T18:20:18.599Z,63
2023-10-29T18:25:20.127Z,63
2023-10-29T18:30:27.355Z,63
2023-10-29T18:35:14.348Z,63
2023-10-29T18:40:18.615Z,63
2023-10-29T18:45:21.995Z,63
2023-10-29T18:50:15.751Z,62
2023-10-29T18:55:21.387Z,62
2023-10-29T19:00:21.041Z,62
2023-10-29T19:05:18.356Z,62
2023-10-29T19:10:17.437Z,62
2023-10-29T19:15:15.433Z,62
2023-10-29T19:20:17.537Z,62
2023-10-29T19:25:19.806Z,62
2023-10-29T19:30:18.089Z,62
2023-10-29T19:35:24.303Z,63
2023-10-29T19:40:25.517Z,63
2023-10-29T19:45:25.530Z,63
2023-10-29T19:50:20.455Z,62
2023-10-29T19:55:21.301Z,61
2023-10-29T20:00:20.309Z,61
2023-10-29T20:05:26.135Z,62
2023-10-29T20:10:20.091Z,61
2023-10-29T20:15:20.139Z,62
2023-10-29T20:20:17.920Z,60
2023-10-29T20:25:17.794Z,62
2023-10-29T20:30:22.697Z,62
2023-10-29T20:35:23.409Z,61
2023-10-29T20:40:17.596Z,61
2023-10-29T20:45:19.148Z,61
2023-10-29T20:50:19.132Z,61
2023-10-29T20:55:17.465Z,61
2023-10-29T21:00:17.545Z,61
2023-10-29T21:05:18.387Z,60
2023-10-29T21:10:24.524Z,59
2023-10-29T21:15:17.210Z,60
2023-10-29T21:20:20.860Z,60
2023-10-29T21:25:18.262Z,60
2023-10-29T21:30:17.051Z,60
2023-10-29T21:35:18.938Z,60
2023-10-29T21:40:16.653Z,60
2023-10-29T21:45:25.387Z,60
2023-10-29T21:50:24.507Z,60
2023-10-29T21:55:16.303Z,60
2023-10-29T22:00:16.820Z,60
2023-10-29T22:05:20.625Z,60
2023-10-29T22:10:14.284Z,60
2023-10-29T22:15:18.789Z,59
2023-10-29T22:20:18.089Z,59
2023-10-29T22:25:13.865Z,59
2023-10-29T22:30:14.790Z,59
2023-10-29T22:35:14.532Z,59
2023-10-29T22:40:21.018Z,59
2023-10-29T22:45:16.427Z,59
2023-10-29T22:50:15.908Z,58
2023-10-29T22:55:22.453Z,58
2023-10-29T23:00:16.890Z,59
2023-10-29T23:05:14.625Z,59
2023-10-29T23:10:18.999Z,59
2023-10-29T23:15:14.464Z,58
2023-10-29T23:20:21.451Z,58
2023-10-29T23:25:14.239Z,58
2023-10-29T23:30:21.090Z,57
2023-10-29T23:35:15.896Z,58
2023-10-29T23:40:15.860Z,58
2023-10-29T23:45:16.062Z,56
2023-10-29T23:50:16.360Z,57
2023-10-29T23:55:17.299Z,57
